Time;durP1;ratioP1;P1;durP2;ratioP2;P2;SDS_P1;SDS_P2;PMS_P1;PMS_P2;Temp;Humidity;BMP_temperature;BMP_pressure;BME280_temperature;BME280_humidity;BME280_pressure;Samples;Min_cycle;Max_cycle;Signal;HPM_P1;HPM_P2
2021/05/14 00:01:18;;;;;;;7.45;5.63;;;;;;;10.13;80.13;100024.38;4979871;28;20048;-50
2021/05/14 00:03:44;;;;;;;7.28;4.22;;;;;;;10.25;79.19;100024.19;4976969;28;20045;-50
2021/05/14 00:06:10;;;;;;;5.57;3.40;;;;;;;10.15;79.71;100027.81;4980721;28;20407;-50
2021/05/14 00:08:35;;;;;;;5.13;3.28;;;;;;;10.00;80.40;100023.66;4980912;28;20529;-50
2021/05/14 00:11:01;;;;;;;4.50;3.05;;;;;;;9.94;80.29;100028.94;4990368;28;20092;-50
2021/05/14 00:13:27;;;;;;;5.57;3.30;;;;;;;9.98;79.95;100023.69;4997630;28;20263;-50
2021/05/14 00:15:53;;;;;;;4.97;2.78;;;;;;;10.43;77.25;100023.13;5002607;28;20024;-50
2021/05/14 00:18:19;;;;;;;4.88;3.20;;;;;;;10.41;77.35;100019.66;5001449;28;20030;-49
2021/05/14 00:20:46;;;;;;;4.82;2.90;;;;;;;10.16;79.08;100019.97;5001107;28;20508;-50
2021/05/14 00:23:13;;;;;;;4.78;3.05;;;;;;;10.02;79.54;100017.56;5001333;28;20033;-52
2021/05/14 00:25:39;;;;;;;5.07;3.30;;;;;;;9.95;80.75;100025.47;4992035;28;20065;-51
2021/05/14 00:28:05;;;;;;;5.65;2.90;;;;;;;9.98;79.80;100009.75;4977382;28;20132;-51
2021/05/14 00:30:31;;;;;;;4.85;3.03;;;;;;;10.07;78.49;100020.09;4980136;28;20036;-50
2021/05/14 00:32:57;;;;;;;5.93;3.60;;;;;;;9.99;79.70;100014.09;4976643;28;20524;-51
2021/05/14 00:35:22;;;;;;;5.95;3.47;;;;;;;9.82;80.40;100016.94;4980791;28;20744;-49
2021/05/14 00:37:48;;;;;;;5.78;3.42;;;;;;;10.12;79.13;100018.28;4992498;28;20046;-49
2021/05/14 00:40:14;;;;;;;5.45;3.28;;;;;;;10.08;79.05;100016.59;4979940;28;20045;-48
2021/05/14 00:42:40;;;;;;;5.53;3.40;;;;;;;9.84;80.48;100021.25;4977723;28;20339;-50
2021/05/14 00:45:07;;;;;;;4.40;2.95;;;;;;;9.80;81.04;100022.16;4981187;28;20401;-51
2021/05/14 00:47:33;;;;;;;4.88;3.00;;;;;;;9.84;80.30;100023.88;4980279;28;20121;-49
2021/05/14 00:49:59;;;;;;;4.95;3.33;;;;;;;9.88;79.32;100025.56;4992971;28;20468;-51
2021/05/14 00:52:25;;;;;;;5.32;3.17;;;;;;;9.81;81.22;100020.41;5000378;28;20518;-50
2021/05/14 00:54:52;;;;;;;5.97;3.42;;;;;;;9.72;81.34;100031.84;4995209;28;20421;-48
2021/05/14 00:57:17;;;;;;;5.68;3.90;;;;;;;9.57;82.25;100018.94;4983518;28;20414;-50
2021/05/14 00:59:45;;;;;;;6.03;3.67;;;;;;;9.56;82.14;100014.63;4979845;28;20050;-49
2021/05/14 01:02:11;;;;;;;6.90;3.55;;;;;;;9.49;83.44;100022.50;4978316;28;20049;-48
2021/05/14 01:04:37;;;;;;;5.93;3.83;;;;;;;9.42;83.04;100020.84;4982300;28;20049;-53
2021/05/14 01:07:03;;;;;;;5.25;3.95;;;;;;;9.47;82.51;100008.63;4998205;28;20080;-49
2021/05/14 01:09:30;;;;;;;5.93;4.50;;;;;;;9.42;82.53;100017.38;4979124;28;20403;-49
2021/05/14 01:11:56;;;;;;;5.18;3.70;;;;;;;9.59;81.06;100017.19;4993873;28;20041;-50
2021/05/14 01:14:21;;;;;;;4.72;3.58;;;;;;;9.59;80.54;100011.97;4981865;28;20053;-49
2021/05/14 01:16:47;;;;;;;5.15;3.58;;;;;;;9.61;81.09;100015.41;4977074;28;20395;-48
2021/05/14 01:19:13;;;;;;;7.05;3.70;;;;;;;9.69;81.14;100018.78;4980004;28;20046;-48
2021/05/14 01:21:39;;;;;;;4.13;3.25;;;;;;;9.58;81.36;100018.94;4979086;28;20149;-51
2021/05/14 01:24:05;;;;;;;6.05;3.70;;;;;;;9.44;82.08;100013.88;4999034;28;20758;-53
2021/05/14 01:26:31;;;;;;;5.68;3.85;;;;;;;9.36;82.18;100013.94;4986318;28;20135;-49
2021/05/14 01:28:59;;;;;;;5.85;4.22;;;;;;;9.30;83.05;100018.34;4982690;28;20129;-50
2021/05/14 01:31:25;;;;;;;4.72;3.30;;;;;;;9.87;78.73;100008.16;4978826;28;20038;-49
2021/05/14 01:33:51;;;;;;;5.97;3.90;;;;;;;9.56;79.69;100012.00;4981071;28;21077;-50
2021/05/14 01:36:18;;;;;;;6.53;4.10;;;;;;;9.38;82.08;100008.69;5001450;28;20073;-50
2021/05/14 01:38:44;;;;;;;7.25;4.20;;;;;;;9.18;82.19;100007.16;4997944;28;20072;-49
2021/05/14 01:41:10;;;;;;;6.10;3.80;;;;;;;9.34;81.26;100010.47;4998756;28;20344;-52
2021/05/14 01:43:36;;;;;;;5.57;4.18;;;;;;;9.32;81.30;100016.59;5000473;28;20644;-48
2021/05/14 01:46:04;;;;;;;6.20;3.75;;;;;;;9.36;81.27;100010.47;5012862;28;20033;-49
2021/05/14 01:48:31;;;;;;;5.07;3.97;;;;;;;9.34;80.93;100015.69;4998139;28;20021;-51
2021/05/14 01:51:04;;;;;;;7.15;3.70;;;;;;;9.25;81.88;100014.91;5000378;28;20116;-49
2021/05/14 01:53:30;;;;;;;4.85;3.60;;;;;;;9.10;82.86;100014.19;5000439;28;20224;-51
2021/05/14 01:55:56;;;;;;;6.25;3.78;;;;;;;9.10;81.82;100011.59;4987634;28;20030;-48
2021/05/14 01:58:22;;;;;;;7.85;4.05;;;;;;;9.11;82.86;100010.72;4978468;28;20064;-50
2021/05/14 02:00:47;;;;;;;6.22;3.85;;;;;;;9.13;81.92;100003.72;4979787;28;20045;-50
2021/05/14 02:03:13;;;;;;;6.38;4.00;;;;;;;8.92;83.37;100009.16;4981716;28;20041;-48
2021/05/14 02:05:39;;;;;;;5.07;3.75;;;;;;;8.92;82.43;100014.38;4977672;28;20037;-49
2021/05/14 02:08:05;;;;;;;6.43;4.20;;;;;;;9.06;82.01;100016.84;4981788;28;20508;-51
2021/05/14 02:10:30;;;;;;;7.07;4.28;;;;;;;8.88;83.50;100016.13;4981727;28;20034;-49
2021/05/14 02:12:56;;;;;;;5.25;3.60;;;;;;;8.87;82.29;100011.78;4980790;28;20026;-49
2021/05/14 02:15:21;;;;;;;6.03;4.18;;;;;;;8.82;83.58;100014.44;4978167;28;20073;-50
2021/05/14 02:17:47;;;;;;;5.22;4.00;;;;;;;8.64;84.77;100014.56;4982795;28;20046;-53
2021/05/14 02:20:13;;;;;;;7.05;4.60;;;;;;;8.63;85.00;100012.84;4982612;28;20125;-52
2021/05/14 02:22:41;;;;;;;7.43;4.68;;;;;;;8.68;83.28;100009.31;4981088;28;20787;-50
2021/05/14 02:25:07;;;;;;;6.73;4.70;;;;;;;8.74;84.42;100011.03;4994407;28;20065;-51
2021/05/14 02:27:34;;;;;;;6.25;4.57;;;;;;;8.67;84.85;100011.94;4984128;28;20543;-52
2021/05/14 02:30:03;;;;;;;6.88;5.20;;;;;;;8.54;84.92;100007.69;5021464;28;20046;-51
2021/05/14 02:32:29;;;;;;;7.80;5.05;;;;;;;8.59;84.09;100006.78;5004095;28;20041;-49
2021/05/14 02:34:54;;;;;;;6.30;4.72;;;;;;;8.52;84.95;100005.94;5002889;28;20286;-53
2021/05/14 02:37:20;;;;;;;6.97;4.63;;;;;;;8.49;83.95;100008.59;4991014;28;20926;-50
2021/05/14 02:39:46;;;;;;;7.05;4.68;;;;;;;8.73;83.02;100006.69;4983086;28;20029;-50
2021/05/14 02:42:12;;;;;;;6.18;4.55;;;;;;;8.92;83.14;100014.38;5002492;28;20053;-50
2021/05/14 02:44:38;;;;;;;6.95;5.18;;;;;;;8.74;83.10;100011.03;5004985;28;20509;-49
2021/05/14 02:47:04;;;;;;;5.85;4.43;;;;;;;8.93;81.76;100016.97;4992538;28;20046;-49
2021/05/14 02:49:31;;;;;;;7.00;4.50;;;;;;;8.69;83.37;100010.19;4984071;28;20065;-48
2021/05/14 02:51:56;;;;;;;5.90;4.10;;;;;;;8.85;82.23;100009.19;5000145;28;20069;-49
2021/05/14 02:54:22;;;;;;;6.45;4.30;;;;;;;8.83;82.26;100016.16;4998816;28;20335;-49
2021/05/14 02:56:48;;;;;;;7.28;4.45;;;;;;;8.93;82.12;100016.06;4986075;28;20042;-50
2021/05/14 02:59:13;;;;;;;6.03;4.25;;;;;;;8.78;83.42;100010.13;4981745;28;20414;-51
2021/05/14 03:01:39;;;;;;;7.15;4.32;;;;;;;8.68;83.76;100011.03;4982583;28;20045;-50
2021/05/14 03:04:05;;;;;;;6.45;4.15;;;;;;;8.82;82.15;100018.75;4982292;28;20345;-49
2021/05/14 03:06:31;;;;;;;6.18;4.32;;;;;;;8.69;84.11;100012.78;4985378;28;20076;-51
2021/05/14 03:08:58;;;;;;;5.22;3.72;;;;;;;8.80;82.25;100012.72;5000535;28;20140;-49
2021/05/14 03:11:24;;;;;;;5.88;4.07;;;;;;;8.73;82.90;100013.63;4999839;28;20349;-50
2021/05/14 03:13:49;;;;;;;6.40;4.15;;;;;;;8.65;82.53;100009.34;4999399;28;20037;-51
2021/05/14 03:16:15;;;;;;;7.43;4.50;;;;;;;8.46;84.45;100005.13;5002947;28;20720;-50
2021/05/14 03:18:41;;;;;;;6.93;4.65;;;;;;;8.40;85.46;100021.63;5000737;28;20030;-49
2021/05/14 03:21:07;;;;;;;6.70;4.40;;;;;;;8.42;84.25;100014.69;5021855;28;20443;-50
2021/05/14 03:23:32;;;;;;;7.97;5.10;;;;;;;8.28;84.33;100013.88;4986839;28;20500;-49
2021/05/14 03:25:58;;;;;;;6.97;5.63;;;;;;;8.16;86.02;100015.69;4985402;28;20474;-51
2021/05/14 03:28:24;;;;;;;7.18;5.43;;;;;;;8.12;85.63;100020.94;4996618;28;20068;-49
2021/05/14 03:30:51;;;;;;;7.63;5.70;;;;;;;8.09;85.40;100019.19;4983126;28;20349;-50
2021/05/14 03:33:20;;;;;;;7.63;5.55;;;;;;;8.12;85.61;100021.78;4983044;28;20030;-50
2021/05/14 03:35:50;;;;;;;7.47;5.80;;;;;;;8.14;86.15;100012.25;4977974;28;20132;-49
2021/05/14 03:38:17;;;;;;;7.28;5.63;;;;;;;8.14;85.72;100019.16;4994109;28;20045;-50
2021/05/14 03:40:43;;;;;;;8.77;5.75;;;;;;;8.31;85.06;100016.50;4991239;28;20564;-50
2021/05/14 03:43:09;;;;;;;7.75;5.90;;;;;;;8.19;85.65;100010.47;4976618;28;20246;-50
2021/05/14 03:45:35;;;;;;;8.75;6.13;;;;;;;8.54;83.26;100012.91;4983560;28;20037;-49
2021/05/14 03:48:01;;;;;;;8.45;5.75;;;;;;;8.39;84.31;100014.72;4977808;28;20033;-51
2021/05/14 03:50:31;;;;;;;8.57;5.90;;;;;;;8.22;85.81;100013.94;4980619;28;20340;-51
2021/05/14 03:53:01;;;;;;;7.68;5.72;;;;;;;8.11;85.71;100019.19;4991883;28;20111;-49
2021/05/14 03:55:27;;;;;;;6.18;5.38;;;;;;;8.06;86.27;100011.41;5000314;28;20478;-50
2021/05/14 03:57:52;;;;;;;7.80;6.35;;;;;;;8.04;86.42;100013.13;4999590;28;20327;-51
2021/05/14 04:00:19;;;;;;;7.85;5.78;;;;;;;8.08;85.41;100009.66;4979946;28;20393;-49
2021/05/14 04:02:44;;;;;;;7.50;5.78;;;;;;;8.06;85.81;100020.94;4977847;28;20324;-51
2021/05/14 04:05:11;;;;;;;7.68;5.80;;;;;;;8.03;87.13;100014.03;4981522;28;20037;-49
2021/05/14 04:07:37;;;;;;;9.68;6.13;;;;;;;8.00;87.30;100014.91;4991887;28;20597;-50
2021/05/14 04:15:11;;;;;;;8.03;6.10;;;;;;;8.00;87.13;100011.44;5006128;28;20374;-49
2021/05/14 04:17:37;;;;;;;7.50;5.72;;;;;;;8.01;86.61;100006.22;5003569;28;20080;-51
2021/05/14 04:20:07;;;;;;;7.88;5.40;;;;;;;8.06;85.66;100010.53;5004877;28;20485;-50
2021/05/14 04:22:35;;;;;;;9.15;6.03;;;;;;;8.01;86.31;100010.56;4994197;28;20049;-50
2021/05/14 04:25:01;;;;;;;8.98;6.55;;;;;;;8.07;86.07;100009.66;4986568;28;20102;-47
2021/05/14 04:27:27;;;;;;;7.85;5.93;;;;;;;8.11;85.67;100004.44;5005931;28;20037;-50
2021/05/14 04:29:54;;;;;;;8.52;6.68;;;;;;;8.11;86.03;100017.47;5004017;28;20065;-51
2021/05/14 04:32:19;;;;;;;9.25;6.25;;;;;;;8.11;86.97;100014.88;5003984;28;20137;-51
2021/05/14 04:34:45;;;;;;;8.45;6.28;;;;;;;8.13;86.36;100018.31;4994635;28;20536;-51
2021/05/14 04:37:12;;;;;;;8.02;5.88;;;;;;;8.21;85.06;100014.81;4990062;28;20083;-51
2021/05/14 04:39:38;;;;;;;9.52;7.50;;;;;;;8.29;85.37;100016.50;5005751;28;20033;-49
2021/05/14 04:42:04;;;;;;;9.32;6.85;;;;;;;8.24;85.84;100019.97;4987003;28;20061;-51
2021/05/14 04:44:31;;;;;;;9.00;6.63;;;;;;;8.49;83.85;100015.53;4983734;28;20457;-50
2021/05/14 04:46:56;;;;;;;9.10;6.55;;;;;;;8.47;84.89;100023.38;4980272;28;20041;-51
2021/05/14 04:49:22;;;;;;;8.50;6.22;;;;;;;8.48;85.17;100022.47;4985639;28;20046;-49
2021/05/14 04:51:49;;;;;;;8.20;6.40;;;;;;;8.58;85.01;100025.03;4983290;28;20026;-49
2021/05/14 04:54:14;;;;;;;7.57;6.18;;;;;;;8.54;85.18;100033.75;4987442;28;20030;-49
2021/05/14 04:56:40;;;;;;;7.32;5.47;;;;;;;8.60;83.78;100033.69;4987796;28;20632;-49
2021/05/14 04:59:06;;;;;;;7.60;6.40;;;;;;;8.69;85.11;100025.81;4983814;28;20048;-49
2021/05/14 05:01:33;;;;;;;7.78;6.55;;;;;;;8.59;85.75;100026.78;4980161;28;20038;-49
2021/05/14 05:03:59;;;;;;;8.95;6.75;;;;;;;8.65;85.34;100024.09;4981258;28;20033;-53
2021/05/14 05:06:25;;;;;;;7.13;6.22;;;;;;;8.62;85.61;100024.13;4986268;28;20026;-53
2021/05/14 05:08:51;;;;;;;9.05;7.15;;;;;;;8.61;86.17;100030.22;4985137;28;20042;-50
2021/05/14 05:11:17;;;;;;;8.90;6.85;;;;;;;8.72;84.51;100032.75;4986830;28;20046;-53
2021/05/14 05:13:43;;;;;;;8.15;7.05;;;;;;;8.72;85.49;100033.59;4980650;28;20048;-50
2021/05/14 05:16:09;;;;;;;8.75;6.68;;;;;;;8.75;85.95;100028.41;4988707;28;20058;-50
2021/05/14 05:18:35;;;;;;;7.95;6.30;;;;;;;8.78;85.06;100030.97;4986759;28;20068;-50
2021/05/14 05:21:01;;;;;;;7.60;6.18;;;;;;;8.84;84.28;100036.13;4981965;28;20378;-49
2021/05/14 05:23:26;;;;;;;7.80;6.30;;;;;;;9.08;82.76;100034.19;4984377;28;20084;-49
2021/05/14 05:25:52;;;;;;;9.13;6.50;;;;;;;8.99;83.75;100031.69;4984426;28;20048;-53
2021/05/14 05:28:22;;;;;;;8.38;6.10;;;;;;;9.04;84.18;100037.69;4985852;28;20042;-51
2021/05/14 05:30:48;;;;;;;6.05;5.05;;;;;;;9.18;82.57;100035.84;4982554;28;20402;-49
2021/05/14 05:33:14;;;;;;;7.70;6.05;;;;;;;9.74;79.66;100031.81;4987645;28;20033;-50
2021/05/14 05:35:39;;;;;;;6.68;5.30;;;;;;;9.69;78.72;100042.28;4980531;28;20492;-49
2021/05/14 05:38:20;;;;;;;7.97;5.30;;;;;;;9.72;77.94;100037.06;4983284;28;20054;-49
2021/05/14 05:40:46;;;;;;;6.55;4.90;;;;;;;9.84;78.54;100034.31;4979166;28;20050;-49
2021/05/14 05:43:14;;;;;;;7.53;5.50;;;;;;;9.68;79.55;100040.59;4986893;28;20045;-51
2021/05/14 05:45:40;;;;;;;6.90;4.65;;;;;;;9.58;79.73;100041.53;4988941;28;20041;-49
2021/05/14 05:48:08;;;;;;;7.25;5.18;;;;;;;9.70;78.34;100046.63;4989770;28;20775;-49
2021/05/14 05:50:35;;;;;;;6.88;4.95;;;;;;;9.74;78.21;100053.56;5004590;28;20041;-53
2021/05/14 05:53:01;;;;;;;7.50;4.63;;;;;;;9.72;76.85;100050.09;5005677;28;20313;-51
2021/05/14 05:55:26;;;;;;;7.70;4.88;;;;;;;9.82;76.02;100056.09;5009915;28;20614;-51
2021/05/14 05:57:52;;;;;;;7.70;4.78;;;;;;;10.08;77.68;100057.50;5002119;28;20061;-50
2021/05/14 06:00:18;;;;;;;6.55;4.55;;;;;;;10.20;73.65;100052.13;5008970;28;20486;-49
2021/05/14 06:02:45;;;;;;;7.50;4.97;;;;;;;10.09;77.26;100065.31;5011505;28;20110;-49
2021/05/14 06:05:11;;;;;;;6.07;4.22;;;;;;;10.00;77.31;100062.84;4991452;28;20775;-51
2021/05/14 06:07:37;;;;;;;6.07;4.75;;;;;;;9.96;76.14;100064.59;4980043;28;21035;-50
2021/05/14 06:10:04;;;;;;;6.00;4.63;;;;;;;10.37;75.94;100065.00;4985579;28;20040;-49
2021/05/14 06:12:30;;;;;;;6.30;4.63;;;;;;;10.47;75.45;100064.00;4986368;28;20127;-48
2021/05/14 06:14:56;;;;;;;6.28;4.82;;;;;;;10.27;75.48;100060.75;5001260;28;20489;-49
2021/05/14 06:17:22;;;;;;;8.48;5.35;;;;;;;10.50;74.60;100066.56;5008909;28;20088;-48
2021/05/14 06:19:55;;;;;;;6.78;5.15;;;;;;;10.41;74.35;100066.69;5005405;28;20037;-50
2021/05/14 06:22:23;;;;;;;6.32;4.72;;;;;;;10.45;73.91;100070.97;4996714;28;20771;-50
2021/05/14 06:24:50;;;;;;;6.05;4.50;;;;;;;10.30;73.89;100073.78;4997233;28;20273;-49
2021/05/14 06:27:15;;;;;;;5.75;4.38;;;;;;;10.46;73.79;100070.09;4998821;28;20033;-52
2021/05/14 06:29:42;;;;;;;8.48;4.82;;;;;;;10.67;72.41;100068.91;4989448;28;20439;-48
2021/05/14 06:32:08;;;;;;;7.97;5.63;;;;;;;10.66;73.67;100076.78;4986810;28;20030;-49
2021/05/14 06:34:35;;;;;;;7.82;4.68;;;;;;;10.97;72.25;100069.34;4984841;28;20048;-50
2021/05/14 06:37:02;;;;;;;7.07;4.93;;;;;;;11.01;72.55;100078.03;4988606;28;20050;-49
2021/05/14 06:39:27;;;;;;;7.15;5.00;;;;;;;10.97;73.21;100073.72;5013167;28;20156;-48
2021/05/14 06:41:53;;;;;;;6.70;5.00;;;;;;;11.15;71.87;100078.66;5011529;28;20613;-48
2021/05/14 06:44:19;;;;;;;7.03;5.20;;;;;;;11.10;71.71;100085.72;5012344;28;20065;-50
2021/05/14 06:46:45;;;;;;;6.78;4.88;;;;;;;11.13;71.32;100074.34;5003490;28;20441;-49
2021/05/14 06:49:11;;;;;;;6.78;4.65;;;;;;;10.90;70.67;100072.97;5004062;28;20048;-54
2021/05/14 06:51:37;;;;;;;7.60;4.63;;;;;;;10.95;71.74;100075.50;4989890;28;20531;-49
2021/05/14 06:54:03;;;;;;;7.65;4.82;;;;;;;11.22;69.02;100074.19;5006128;28;20086;-48
2021/05/14 06:56:29;;;;;;;6.63;4.80;;;;;;;11.16;70.01;100077.78;5004982;28;20507;-50
2021/05/14 06:58:55;;;;;;;7.30;4.80;;;;;;;11.45;70.27;100072.91;5004452;28;20440;-52
2021/05/14 07:01:22;;;;;;;9.48;5.30;;;;;;;11.22;68.44;100071.56;5008072;28;20370;-49
2021/05/14 07:03:49;;;;;;;7.00;4.82;;;;;;;11.21;69.45;100069.84;5000236;28;20453;-50
2021/05/14 07:06:15;;;;;;;8.18;5.15;;;;;;;11.08;68.40;100072.66;5010020;28;20112;-49
2021/05/14 07:08:43;;;;;;;7.70;5.88;;;;;;;11.02;69.10;100079.72;5006030;28;20037;-50
2021/05/14 07:11:08;;;;;;;7.55;5.13;;;;;;;11.55;67.74;100077.13;5004949;28;20057;-49
2021/05/14 07:13:34;;;;;;;7.82;5.07;;;;;;;11.22;69.11;100075.03;5002694;28;20390;-49
2021/05/14 07:16:00;;;;;;;7.90;4.65;;;;;;;11.10;69.82;100075.25;5004050;28;20140;-50
2021/05/14 07:18:26;;;;;;;8.00;5.70;;;;;;;11.25;68.65;100076.75;5004665;28;20042;-49
2021/05/14 07:20:52;;;;;;;7.20;5.18;;;;;;;11.28;69.58;100081.91;5007269;28;20041;-54
2021/05/14 07:23:18;;;;;;;8.07;5.18;;;;;;;11.72;67.97;100087.25;5003614;28;20293;-49
2021/05/14 07:25:44;;;;;;;7.90;5.20;;;;;;;11.75;67.13;100095.94;4991562;28;20123;-49
2021/05/14 07:28:10;;;;;;;8.43;5.93;;;;;;;11.55;67.86;100085.81;4984670;28;20034;-49
2021/05/14 07:30:36;;;;;;;7.50;5.55;;;;;;;11.73;66.81;100084.63;4986446;28;20036;-49
2021/05/14 07:33:04;;;;;;;7.97;5.35;;;;;;;11.89;66.48;100095.69;4982362;28;20124;-50
2021/05/14 07:35:30;;;;;;;8.40;5.53;;;;;;;12.01;66.25;100099.81;4982846;28;20046;-52
2021/05/14 07:37:55;;;;;;;10.45;6.05;;;;;;;11.96;67.56;100101.66;4994632;28;20037;-50
2021/05/14 07:40:21;;;;;;;9.40;5.88;;;;;;;12.30;65.67;100097.53;5001926;28;20048;-49
2021/05/14 07:42:47;;;;;;;8.45;6.03;;;;;;;12.32;65.60;100103.59;5002578;28;20040;-50
2021/05/14 07:45:14;;;;;;;9.05;5.90;;;;;;;12.32;64.39;100098.34;5006843;28;20041;-47
2021/05/14 07:47:39;;;;;;;7.95;5.50;;;;;;;12.05;66.11;100103.25;4987055;28;20120;-48
2021/05/14 07:50:09;;;;;;;11.15;6.32;;;;;;;11.99;66.91;100105.97;4980086;28;20042;-51
2021/05/14 07:52:34;;;;;;;7.68;5.18;;;;;;;12.43;64.40;100109.47;4987657;28;20631;-51
2021/05/14 07:55:01;;;;;;;7.68;5.40;;;;;;;12.40;64.39;100107.75;4979527;28;20437;-50
2021/05/14 07:57:28;;;;;;;8.70;5.95;;;;;;;12.48;64.30;100101.50;4985016;28;20038;-49
2021/05/14 07:59:54;;;;;;;9.35;5.35;;;;;;;12.54;63.39;100109.22;4983819;28;20041;-49
2021/05/14 08:02:20;;;;;;;8.02;5.38;;;;;;;12.39;63.81;100099.94;4984608;28;20131;-50
2021/05/14 08:04:46;;;;;;;7.45;5.07;;;;;;;12.15;64.92;100104.78;4979848;28;20041;-50
2021/05/14 08:07:12;;;;;;;9.80;5.05;;;;;;;12.22;65.34;100108.16;4979846;28;20533;-50
2021/05/14 08:09:40;;;;;;;7.40;4.75;;;;;;;12.32;64.10;100104.44;4980437;28;20027;-53
2021/05/14 08:12:06;;;;;;;8.15;5.13;;;;;;;12.66;62.80;100098.47;4981030;28;20444;-49
2021/05/14 08:14:32;;;;;;;8.18;4.45;;;;;;;12.38;64.02;100103.47;4983274;28;20486;-49
2021/05/14 08:16:58;;;;;;;5.72;3.92;;;;;;;12.38;62.15;100101.69;4982474;28;20107;-49
2021/05/14 08:19:24;;;;;;;5.95;3.75;;;;;;;12.44;62.75;100092.84;4990139;28;20041;-49
2021/05/14 08:21:50;;;;;;;5.03;3.83;;;;;;;12.45;62.84;100094.56;4999408;28;20556;-50
2021/05/14 08:24:16;;;;;;;6.35;3.83;;;;;;;12.90;59.08;100091.81;5005555;28;20026;-50
2021/05/14 08:26:42;;;;;;;5.65;3.63;;;;;;;12.66;61.14;100089.75;5001401;28;20042;-49
2021/05/14 08:29:09;;;;;;;5.07;3.15;;;;;;;12.41;61.78;100090.28;4998739;28;20046;-49
2021/05/14 08:31:39;;;;;;;6.25;3.28;;;;;;;12.80;60.30;100085.03;5000437;28;20045;-49
2021/05/14 08:34:09;;;;;;;7.80;3.22;;;;;;;12.97;60.55;100087.25;4997816;28;20053;-51
2021/05/14 08:36:35;;;;;;;6.90;3.42;;;;;;;13.14;58.40;100086.88;4982766;28;20046;-50
2021/05/14 08:39:00;;;;;;;5.20;3.15;;;;;;;13.42;58.29;100087.06;5000712;28;20060;-49
2021/05/14 08:41:34;;;;;;;5.45;3.30;;;;;;;13.20;59.34;100091.13;5005445;28;20041;-49
2021/05/14 08:44:00;;;;;;;6.45;2.80;;;;;;;13.28;56.05;100092.63;5000676;28;20048;-49
2021/05/14 08:46:27;;;;;;;7.05;2.67;;;;;;;13.20;57.30;100093.75;5001852;28;20050;-50
2021/05/14 08:48:53;;;;;;;5.93;2.33;;;;;;;13.05;57.70;100089.72;5003905;28;20452;-48
2021/05/14 08:51:26;;;;;;;6.50;2.72;;;;;;;13.29;56.63;100093.47;5002699;28;20211;-50
2021/05/14 08:53:52;;;;;;;4.05;2.30;;;;;;;13.55;53.61;100090.22;5005478;28;20099;-49
2021/05/14 08:56:18;;;;;;;5.57;2.25;;;;;;;13.84;52.59;100095.63;5000709;28;20042;-51
2021/05/14 08:58:44;;;;;;;3.42;1.90;;;;;;;13.88;52.63;100092.84;4997293;28;20048;-50
2021/05/14 09:01:09;;;;;;;5.18;2.67;;;;;;;13.80;53.42;100089.56;4997747;28;20046;-51
2021/05/14 09:03:59;;;;;;;5.00;2.33;;;;;;;13.71;55.22;100092.47;4985937;28;20504;-49
2021/05/14 09:06:38;;;;;;;6.10;2.63;;;;;;;13.96;52.62;100088.25;4979314;28;20440;-50
2021/05/14 09:09:09;;;;;;;4.93;2.67;;;;;;;14.04;52.57;100092.41;4982290;28;20046;-51
2021/05/14 09:11:44;;;;;;;5.78;2.97;;;;;;;14.20;49.85;100090.22;4988285;28;20383;-49
2021/05/14 09:14:33;;;;;;;4.45;2.05;;;;;;;13.85;52.56;100092.94;5001787;28;20124;-49
2021/05/14 09:17:10;;;;;;;4.32;1.80;;;;;;;13.62;52.18;100091.81;4999026;28;20132;-52
2021/05/14 09:19:38;;;;;;;4.10;2.30;;;;;;;14.06;49.64;100091.47;5005191;28;20207;-52
2021/05/14 09:22:11;;;;;;;4.17;2.30;;;;;;;13.63;53.89;100092.66;5006763;28;20343;-48
2021/05/14 09:24:38;;;;;;;5.32;2.20;;;;;;;14.46;49.80;100089.47;5004241;28;21015;-50
2021/05/14 09:27:18;;;;;;;5.05;2.20;;;;;;;14.16;52.98;100085.97;5001211;28;20091;-50
2021/05/14 09:29:45;;;;;;;5.80;3.03;;;;;;;14.23;53.01;100088.38;5004305;28;20095;-50
2021/05/14 09:32:28;;;;;;;3.47;1.95;;;;;;;14.08;50.82;100078.28;5010147;28;20212;-48
2021/05/14 09:38:45;;;;;;;7.25;2.17;;;;;;;14.32;49.47;100079.34;3392091;26;20036;-82
2021/05/14 09:41:29;;;;;;;4.70;1.80;;;;;;;14.26;51.13;100084.78;5037361;28;20648;-82
2021/05/14 09:44:09;;;;;;;4.00;1.80;;;;;;;14.72;51.24;100069.44;5034835;28;20312;-82
2021/05/14 09:46:38;;;;;;;3.70;1.80;;;;;;;14.57;51.83;100076.00;5037616;28;20040;-82
2021/05/14 09:49:05;;;;;;;3.30;1.40;;;;;;;14.60;51.23;100076.75;5048915;28;20516;-83
2021/05/14 09:51:32;;;;;;;5.15;1.65;;;;;;;14.66;50.55;100080.13;5034135;28;20112;-81
2021/05/14 09:54:32;;;;;;;4.18;1.90;;;;;;;14.81;48.97;100075.28;5036168;28;20049;-82
2021/05/14 10:00:11;;;;;;;3.33;1.70;;;;;;;14.50;50.54;100077.94;5052644;28;20071;-83
2021/05/14 10:02:41;;;;;;;5.57;2.70;;;;;;;14.68;50.11;100078.34;5032648;28;20052;-81
2021/05/14 10:05:12;;;;;;;3.60;1.40;;;;;;;14.86;49.65;100076.91;5029489;28;20112;-82
2021/05/14 10:07:49;;;;;;;4.35;1.70;;;;;;;14.70;49.84;100071.25;5018867;28;20150;-81
2021/05/14 10:10:20;;;;;;;5.38;2.15;;;;;;;14.62;50.04;100074.97;5041554;28;20036;-82
2021/05/14 10:12:48;;;;;;;3.67;1.77;;;;;;;14.67;49.39;100071.34;5010318;28;20059;-82
2021/05/14 10:15:15;;;;;;;3.20;1.63;;;;;;;14.68;51.21;100078.34;5015524;28;20064;-82
2021/05/14 10:17:56;;;;;;;4.70;1.70;;;;;;;14.90;50.55;100082.00;5041511;28;20683;-83
2021/05/14 10:20:27;;;;;;;3.40;1.80;;;;;;;14.71;51.56;100088.75;5021647;28;20477;-84
2021/05/14 10:22:55;;;;;;;3.75;1.70;;;;;;;14.61;49.96;100082.88;5011052;28;20041;-82
2021/05/14 10:25:49;;;;;;;4.07;1.60;;;;;;;14.70;51.54;100073.88;5042540;28;20052;-82
2021/05/14 10:28:23;;;;;;;3.85;2.00;;;;;;;14.78;50.83;100090.28;5032694;28;20468;-83
2021/05/14 10:31:02;;;;;;;3.15;1.65;;;;;;;14.84;49.59;100060.28;5070599;28;20041;-82
2021/05/14 10:33:41;;;;;;;6.28;2.20;;;;;;;15.31;49.39;100076.28;5051516;28;20059;-82
2021/05/14 10:36:11;;;;;;;;;;;;;;;15.59;49.08;100070.94;5048934;28;20116;-84
2021/05/14 10:38:37;;;;;;;4.55;2.13;;;;;;;15.63;49.34;100066.41;5048411;28;19924;-83
2021/05/14 10:41:26;;;;;;;4.35;2.30;;;;;;;15.83;49.54;100063.09;5041436;28;20497;-83
2021/05/14 10:44:07;;;;;;;3.90;2.53;;;;;;;15.65;48.60;100070.69;5038915;28;20051;-84
2021/05/14 10:46:34;;;;;;;3.90;2.38;;;;;;;15.54;48.95;100064.97;5045987;28;20083;-83
2021/05/14 10:48:59;;;;;;;4.47;2.50;;;;;;;15.36;47.83;100050.66;5057165;28;20040;-82
2021/05/14 10:51:48;;;;;;;3.30;2.40;;;;;;;15.11;49.50;100046.22;5058699;28;20089;-83
2021/05/14 10:54:36;;;;;;;3.45;2.30;;;;;;;15.04;49.98;100041.22;5040354;28;20035;-83
2021/05/14 10:57:02;;;;;;;4.22;2.30;;;;;;;15.11;50.46;100046.22;5057713;28;20649;-82
2021/05/14 10:59:34;;;;;;;3.10;2.30;;;;;;;15.21;48.13;100036.22;5093904;28;20040;-81
2021/05/14 11:02:28;;;;;;;4.05;2.40;;;;;;;15.90;47.75;100037.38;5062443;28;20089;-81
2021/05/14 11:04:55;;;;;;;4.43;2.40;;;;;;;15.57;47.58;100032.38;5018134;28;20064;-82
2021/05/14 11:07:42;;;;;;;4.70;2.67;;;;;;;15.73;49.86;100059.03;5065133;28;20319;-81
2021/05/14 11:10:15;;;;;;;3.42;2.20;;;;;;;15.88;48.79;100042.72;5056206;28;20711;-82
2021/05/14 11:12:43;;;;;;;5.22;2.30;;;;;;;16.11;45.66;100048.91;5039483;28;20130;-81
2021/05/14 11:15:21;;;;;;;6.70;1.88;;;;;;;16.06;45.05;100046.44;5080040;28;20039;-81
2021/05/14 11:18:15;;;;;;;4.00;1.90;;;;;;;15.68;48.82;100050.44;5092496;28;20131;-83
2021/05/14 11:20:42;;;;;;;6.60;2.30;;;;;;;15.46;49.18;100049.41;5057959;28;20043;-82
2021/05/14 11:23:38;;;;;;;5.32;1.90;;;;;;;15.50;49.13;100055.44;5072801;28;20560;-82
2021/05/14 11:26:08;;;;;;;3.15;2.00;;;;;;;15.49;48.57;100053.72;5058412;28;20044;-82
2021/05/14 11:28:36;;;;;;;3.72;1.70;;;;;;;15.20;49.96;100045.03;5075153;28;20046;-81
2021/05/14 11:31:02;;;;;;;2.95;1.98;;;;;;;15.35;48.52;100048.06;5075121;28;20043;-83
2021/05/14 11:33:29;;;;;;;4.03;2.80;;;;;;;15.33;46.80;100048.13;5045384;28;20023;-81
2021/05/14 11:35:54;;;;;;;7.93;3.63;;;;;;;15.53;46.36;100047.41;5061424;28;20048;-81
2021/05/14 11:38:20;;;;;;;3.97;2.80;;;;;;;15.15;49.83;100052.25;5059823;28;20032;-83
2021/05/14 11:40:48;;;;;;;4.35;2.80;;;;;;;15.40;47.43;100049.63;5061306;28;20118;-82
2021/05/14 11:43:14;;;;;;;4.22;2.60;;;;;;;15.15;48.32;100057.50;5076779;28;20031;-83
2021/05/14 11:45:47;;;;;;;3.75;2.47;;;;;;;15.47;47.20;100053.78;5058680;28;20515;-82